Achtergracht — PCCL — position and weather

sailwx.info

Track history (hours):
 
Tides and Currents Weather Stations Pressure Air Temp Water Temp Dewpoint Dewpoint Depression Visibility Wind Speed Wind Dir Waves Ship Positions

Achtergracht

Last reported at 2017-Jun-21 06:51 UTC. Time now 2017-Jun-27 22:42 UTC.
Position N 53°24' E 006°12'.

Length 130 m; beam 19 m; draft 9 m.

Type: Fishing. MMSI: 244030325.

Date/timePositionNaut miles runAvg speedWind from/ knotsBaromVisibWave heightAir tempDewpointWater temp
2017-Jun-21 06:51N 53°24' E 006°12'7 0.3
2017-Jun-20 02:47N 53°31' E 006°15'4 3.0
2017-Jun-20 01:18N 53°32' E 006°07'1 3.4
2017-Jun-20 01:00N 53°32' E 006°06'1 1.2
2017-Jun-20 00:30N 53°32' E 006°07'1 2.2
2017-Jun-20 00:00N 53°31' E 006°09'2 2.7
2017-Jun-19 23:12N 53°32' E 006°12'1 2.8
2017-Jun-19 23:00N 53°31' E 006°13'1 1.0
2017-Jun-19 22:29N 53°31' E 006°13'  
2017-Jun-15 08:09N 53°32' E 006°07'1 2.6
2017-Jun-15 07:41N 53°31' E 006°09'  
Track history (hours):
 
Tides and Currents Weather Stations Pressure Air Temp Water Temp Dewpoint Dewpoint Depression Visibility Wind Speed Wind Dir Waves Ship Positions

Achtergracht

Last reported at 2017-Jun-21 06:51 UTC. Time now 2017-Jun-27 22:42 UTC.
Position N 53°24' E 006°12'.

Length 130 m; beam 19 m; draft 9 m.

Type: Fishing. MMSI: 244030325.

Date/timePositionNaut miles runAvg speedWind from/ knotsBaromVisibWave heightAir tempDewpointWater temp
2017-Jun-21 06:51N 53°24' E 006°12'7 0.3
2017-Jun-20 02:47N 53°31' E 006°15'4 3.0
2017-Jun-20 01:18N 53°32' E 006°07'1 3.4
2017-Jun-20 01:00N 53°32' E 006°06'1 1.2
2017-Jun-20 00:30N 53°32' E 006°07'1 2.2
2017-Jun-20 00:00N 53°31' E 006°09'2 2.7
2017-Jun-19 23:12N 53°32' E 006°12'1 2.8
2017-Jun-19 23:00N 53°31' E 006°13'1 1.0
2017-Jun-19 22:29N 53°31' E 006°13'  
2017-Jun-15 08:09N 53°32' E 006°07'1 2.6
2017-Jun-15 07:41N 53°31' E 006°09'  

Dump ship's entire track history